sensor_id;sensor_type;location;lat;lon;timestamp;temperature;humidity
8593;DHT22;4334;49.982;8.398;2022-11-25T00:01:44;3.40;99.90
8593;DHT22;4334;49.982;8.398;2022-11-25T00:04:11;2.70;99.90
8593;DHT22;4334;49.982;8.398;2022-11-25T00:06:37;2.70;99.90
8593;DHT22;4334;49.982;8.398;2022-11-25T00:09:06;5.60;99.90
8593;DHT22;4334;49.982;8.398;2022-11-25T00:11:34;2.60;99.90
8593;DHT22;4334;49.982;8.398;2022-11-25T00:14:03;2.70;99.90
8593;DHT22;4334;49.982;8.398;2022-11-25T00:16:30;2.60;99.90
8593;DHT22;4334;49.982;8.398;2022-11-25T00:18:58;3.00;99.90
8593;DHT22;4334;49.982;8.398;2022-11-25T00:21:27;3.20;99.90
8593;DHT22;4334;49.982;8.398;2022-11-25T00:23:55;3.00;99.90
8593;DHT22;4334;49.982;8.398;2022-11-25T00:26:23;5.60;99.90
8593;DHT22;4334;49.982;8.398;2022-11-25T00:28:51;2.90;99.90
8593;DHT22;4334;49.982;8.398;2022-11-25T00:31:21;3.00;99.90
8593;DHT22;4334;49.982;8.398;2022-11-25T00:33:49;3.10;99.90
8593;DHT22;4334;49.982;8.398;2022-11-25T00:36:18;3.20;99.90
8593;DHT22;4334;49.982;8.398;2022-11-25T00:38:45;3.40;99.90
8593;DHT22;4334;49.982;8.398;2022-11-25T00:41:13;3.40;99.90
8593;DHT22;4334;49.982;8.398;2022-11-25T00:43:57;3.50;99.90
8593;DHT22;4334;49.982;8.398;2022-11-25T00:46:43;3.50;99.90
8593;DHT22;4334;49.982;8.398;2022-11-25T00:49:10;3.40;99.90
8593;DHT22;4334;49.982;8.398;2022-11-25T00:51:37;3.60;99.90
8593;DHT22;4334;49.982;8.398;2022-11-25T00:54:03;3.70;99.90
8593;DHT22;4334;49.982;8.398;2022-11-25T00:56:31;3.70;99.90
8593;DHT22;4334;49.982;8.398;2022-11-25T00:58:57;3.50;99.90
8593;DHT22;4334;49.982;8.398;2022-11-25T01:01:24;3.40;99.90
8593;DHT22;4334;49.982;8.398;2022-11-25T01:03:52;3.40;99.90
8593;DHT22;4334;49.982;8.398;2022-11-25T01:06:20;3.50;99.90
8593;DHT22;4334;49.982;8.398;2022-11-25T01:08:47;3.60;99.90
8593;DHT22;4334;49.982;8.398;2022-11-25T01:11:16;3.70;99.90
8593;DHT22;4334;49.982;8.398;2022-11-25T01:13:43;3.70;99.90
8593;DHT22;4334;49.982;8.398;2022-11-25T01:16:12;3.70;99.90
8593;DHT22;4334;49.982;8.398;2022-11-25T01:18:40;3.70;99.90
8593;DHT22;4334;49.982;8.398;2022-11-25T01:21:10;3.70;99.90
8593;DHT22;4334;49.982;8.398;2022-11-25T01:23:38;6.90;99.90
8593;DHT22;4334;49.982;8.398;2022-11-25T01:26:07;3.50;99.90
8593;DHT22;4334;49.982;8.398;2022-11-25T01:28:34;3.40;99.90
8593;DHT22;4334;49.982;8.398;2022-11-25T01:31:01;3.50;99.90
8593;DHT22;4334;49.982;8.398;2022-11-25T01:33:29;3.50;99.90
8593;DHT22;4334;49.982;8.398;2022-11-25T01:35:59;3.40;99.90
8593;DHT22;4334;49.982;8.398;2022-11-25T01:38:28;3.40;99.90
8593;DHT22;4334;49.982;8.398;2022-11-25T01:40:56;3.60;99.90
8593;DHT22;4334;49.982;8.398;2022-11-25T01:43:22;3.50;99.90
8593;DHT22;4334;49.982;8.398;2022-11-25T01:45:49;3.40;99.90
8593;DHT22;4334;49.982;8.398;2022-11-25T01:48:19;7.30;99.90
8593;DHT22;4334;49.982;8.398;2022-11-25T01:50:48;3.30;99.90
8593;DHT22;4334;49.982;8.398;2022-11-25T01:53:17;3.50;99.90
8593;DHT22;4334;49.982;8.398;2022-11-25T01:55:49;3.60;99.90
8593;DHT22;4334;49.982;8.398;2022-11-25T01:58:20;3.60;99.90
8593;DHT22;4334;49.982;8.398;2022-11-25T02:00:48;3.50;99.90
8593;DHT22;4334;49.982;8.398;2022-11-25T02:03:19;3.50;99.90
8593;DHT22;4334;49.982;8.398;2022-11-25T02:05:50;3.40;99.90
8593;DHT22;4334;49.982;8.398;2022-11-25T02:08:22;3.60;99.90
8593;DHT22;4334;49.982;8.398;2022-11-25T02:10:51;3.60;99.90
8593;DHT22;4334;49.982;8.398;2022-11-25T02:13:20;3.60;99.90
8593;DHT22;4334;49.982;8.398;2022-11-25T02:15:47;3.60;99.90
8593;DHT22;4334;49.982;8.398;2022-11-25T02:18:14;3.60;99.90
8593;DHT22;4334;49.982;8.398;2022-11-25T02:20:41;3.60;99.90
8593;DHT22;4334;49.982;8.398;2022-11-25T02:23:14;3.60;99.90
8593;DHT22;4334;49.982;8.398;2022-11-25T02:25:45;3.70;99.90
8593;DHT22;4334;49.982;8.398;2022-11-25T02:28:14;3.70;99.90
8593;DHT22;4334;49.982;8.398;2022-11-25T02:30:42;3.80;99.90
8593;DHT22;4334;49.982;8.398;2022-11-25T02:33:09;3.70;99.90
8593;DHT22;4334;49.982;8.398;2022-11-25T02:35:38;3.70;99.90
8593;DHT22;4334;49.982;8.398;2022-11-25T02:38:08;3.60;99.90
8593;DHT22;4334;49.982;8.398;2022-11-25T02:40:48;3.60;99.90
8593;DHT22;4334;49.982;8.398;2022-11-25T02:43:16;3.70;99.90
8593;DHT22;4334;49.982;8.398;2022-11-25T02:45:49;3.70;99.90
8593;DHT22;4334;49.982;8.398;2022-11-25T02:48:16;3.60;99.90
8593;DHT22;4334;49.982;8.398;2022-11-25T02:50:42;3.60;99.90
8593;DHT22;4334;49.982;8.398;2022-11-25T02:53:09;3.60;99.90
8593;DHT22;4334;49.982;8.398;2022-11-25T02:55:36;3.60;99.90
8593;DHT22;4334;49.982;8.398;2022-11-25T02:58:05;3.60;99.90
8593;DHT22;4334;49.982;8.398;2022-11-25T03:00:32;3.60;99.90
8593;DHT22;4334;49.982;8.398;2022-11-25T03:03:00;3.60;99.90
8593;DHT22;4334;49.982;8.398;2022-11-25T03:05:27;3.70;99.90
8593;DHT22;4334;49.982;8.398;2022-11-25T03:07:54;3.70;99.90
8593;DHT22;4334;49.982;8.398;2022-11-25T03:10:21;6.70;99.90
8593;DHT22;4334;49.982;8.398;2022-11-25T03:12:48;3.70;99.90
8593;DHT22;4334;49.982;8.398;2022-11-25T03:15:16;3.70;99.90
8593;DHT22;4334;49.982;8.398;2022-11-25T03:17:43;3.80;99.90
8593;DHT22;4334;49.982;8.398;2022-11-25T03:20:11;3.80;99.90
8593;DHT22;4334;49.982;8.398;2022-11-25T03:22:39;3.80;99.90
8593;DHT22;4334;49.982;8.398;2022-11-25T03:25:07;3.80;99.90
8593;DHT22;4334;49.982;8.398;2022-11-25T03:27:34;3.90;99.90
8593;DHT22;4334;49.982;8.398;2022-11-25T03:30:02;4.00;99.90
8593;DHT22;4334;49.982;8.398;2022-11-25T03:32:30;4.00;99.90
8593;DHT22;4334;49.982;8.398;2022-11-25T03:34:57;4.00;99.90
8593;DHT22;4334;49.982;8.398;2022-11-25T03:37:23;4.00;99.90
8593;DHT22;4334;49.982;8.398;2022-11-25T03:39:50;4.00;99.90
8593;DHT22;4334;49.982;8.398;2022-11-25T03:42:17;4.00;99.90
8593;DHT22;4334;49.982;8.398;2022-11-25T03:44:44;4.00;99.90
8593;DHT22;4334;49.982;8.398;2022-11-25T03:47:10;4.00;99.90
8593;DHT22;4334;49.982;8.398;2022-11-25T03:49:38;4.10;99.90
8593;DHT22;4334;49.982;8.398;2022-11-25T03:52:05;4.00;99.90
8593;DHT22;4334;49.982;8.398;2022-11-25T03:54:32;4.00;99.90
8593;DHT22;4334;49.982;8.398;2022-11-25T03:56:59;4.00;99.90
8593;DHT22;4334;49.982;8.398;2022-11-25T03:59:25;4.00;99.90
8593;DHT22;4334;49.982;8.398;2022-11-25T04:01:52;4.00;99.90
8593;DHT22;4334;49.982;8.398;2022-11-25T04:04:19;3.90;99.90
8593;DHT22;4334;49.982;8.398;2022-11-25T04:06:47;4.00;99.90
8593;DHT22;4334;49.982;8.398;2022-11-25T04:09:14;3.90;99.90
8593;DHT22;4334;49.982;8.398;2022-11-25T04:11:41;3.90;99.90
8593;DHT22;4334;49.982;8.398;2022-11-25T04:14:24;4.00;99.90
8593;DHT22;4334;49.982;8.398;2022-11-25T04:16:51;4.00;99.90
8593;DHT22;4334;49.982;8.398;2022-11-25T04:19:17;4.00;99.90
8593;DHT22;4334;49.982;8.398;2022-11-25T04:21:44;4.10;99.90
8593;DHT22;4334;49.982;8.398;2022-11-25T04:24:12;4.10;99.90
8593;DHT22;4334;49.982;8.398;2022-11-25T04:26:39;4.20;99.90
8593;DHT22;4334;49.982;8.398;2022-11-25T04:29:06;4.30;99.90
8593;DHT22;4334;49.982;8.398;2022-11-25T04:31:33;4.30;99.90
8593;DHT22;4334;49.982;8.398;2022-11-25T04:33:59;4.30;99.90
8593;DHT22;4334;49.982;8.398;2022-11-25T04:36:26;4.30;99.90
8593;DHT22;4334;49.982;8.398;2022-11-25T04:38:54;4.30;99.90
8593;DHT22;4334;49.982;8.398;2022-11-25T04:41:22;4.30;99.90
8593;DHT22;4334;49.982;8.398;2022-11-25T04:43:48;4.40;99.90
8593;DHT22;4334;49.982;8.398;2022-11-25T04:46:16;4.30;99.90
8593;DHT22;4334;49.982;8.398;2022-11-25T04:48:45;4.30;99.90
8593;DHT22;4334;49.982;8.398;2022-11-25T04:51:15;4.30;99.90
8593;DHT22;4334;49.982;8.398;2022-11-25T04:53:41;4.30;99.90
8593;DHT22;4334;49.982;8.398;2022-11-25T04:56:16;4.40;99.90
8593;DHT22;4334;49.982;8.398;2022-11-25T04:58:44;4.30;99.90
8593;DHT22;4334;49.982;8.398;2022-11-25T05:01:28;4.30;99.90
8593;DHT22;4334;49.982;8.398;2022-11-25T05:03:55;4.30;99.90
8593;DHT22;4334;49.982;8.398;2022-11-25T05:06:22;4.40;99.90
8593;DHT22;4334;49.982;8.398;2022-11-25T05:08:49;4.40;99.90
8593;DHT22;4334;49.982;8.398;2022-11-25T05:11:16;6.90;99.90
8593;DHT22;4334;49.982;8.398;2022-11-25T05:13:45;4.50;99.90
8593;DHT22;4334;49.982;8.398;2022-11-25T05:16:11;4.50;99.90
8593;DHT22;4334;49.982;8.398;2022-11-25T05:18:38;4.50;99.90
8593;DHT22;4334;49.982;8.398;2022-11-25T05:21:05;6.20;99.90
8593;DHT22;4334;49.982;8.398;2022-11-25T05:23:32;4.70;99.90
8593;DHT22;4334;49.982;8.398;2022-11-25T05:25:59;4.60;99.90
8593;DHT22;4334;49.982;8.398;2022-11-25T05:28:26;4.70;99.90
8593;DHT22;4334;49.982;8.398;2022-11-25T05:30:54;8.60;99.90
8593;DHT22;4334;49.982;8.398;2022-11-25T05:33:21;4.70;99.90
8593;DHT22;4334;49.982;8.398;2022-11-25T05:35:53;4.70;99.90
8593;DHT22;4334;49.982;8.398;2022-11-25T05:38:20;4.70;99.90
8593;DHT22;4334;49.982;8.398;2022-11-25T05:40:47;5.30;99.90
8593;DHT22;4334;49.982;8.398;2022-11-25T05:43:14;4.80;99.90
8593;DHT22;4334;49.982;8.398;2022-11-25T05:45:41;4.80;99.90
8593;DHT22;4334;49.982;8.398;2022-11-25T05:48:09;4.70;99.90
8593;DHT22;4334;49.982;8.398;2022-11-25T05:50:36;4.70;99.90
8593;DHT22;4334;49.982;8.398;2022-11-25T05:53:03;4.80;99.90
8593;DHT22;4334;49.982;8.398;2022-11-25T05:55:29;4.80;99.90
8593;DHT22;4334;49.982;8.398;2022-11-25T05:57:57;4.80;99.90
8593;DHT22;4334;49.982;8.398;2022-11-25T06:00:24;4.80;99.90
8593;DHT22;4334;49.982;8.398;2022-11-25T06:02:51;4.90;99.90
8593;DHT22;4334;49.982;8.398;2022-11-25T06:05:20;4.90;99.90
8593;DHT22;4334;49.982;8.398;2022-11-25T06:07:47;8.80;99.90
8593;DHT22;4334;49.982;8.398;2022-11-25T06:10:14;4.90;99.90
8593;DHT22;4334;49.982;8.398;2022-11-25T06:12:41;4.90;99.90
8593;DHT22;4334;49.982;8.398;2022-11-25T06:15:09;5.00;99.90
8593;DHT22;4334;49.982;8.398;2022-11-25T06:17:36;5.00;99.90
8593;DHT22;4334;49.982;8.398;2022-11-25T06:20:03;5.00;99.90
8593;DHT22;4334;49.982;8.398;2022-11-25T06:22:31;4.90;99.90
8593;DHT22;4334;49.982;8.398;2022-11-25T06:24:57;5.00;99.90
8593;DHT22;4334;49.982;8.398;2022-11-25T06:27:24;5.00;99.90
8593;DHT22;4334;49.982;8.398;2022-11-25T06:29:51;5.10;99.90
8593;DHT22;4334;49.982;8.398;2022-11-25T06:32:18;5.10;99.90
8593;DHT22;4334;49.982;8.398;2022-11-25T06:34:44;5.10;99.90
8593;DHT22;4334;49.982;8.398;2022-11-25T06:37:11;5.10;99.90
8593;DHT22;4334;49.982;8.398;2022-11-25T06:39:39;5.10;99.90
8593;DHT22;4334;49.982;8.398;2022-11-25T06:42:06;5.10;99.90
8593;DHT22;4334;49.982;8.398;2022-11-25T06:44:33;5.10;99.90
8593;DHT22;4334;49.982;8.398;2022-11-25T06:46:59;5.10;99.90
8593;DHT22;4334;49.982;8.398;2022-11-25T06:49:26;5.20;99.90
8593;DHT22;4334;49.982;8.398;2022-11-25T06:51:53;7.90;99.90
8593;DHT22;4334;49.982;8.398;2022-11-25T06:54:20;7.50;99.90
8593;DHT22;4334;49.982;8.398;2022-11-25T06:56:49;5.20;99.90
8593;DHT22;4334;49.982;8.398;2022-11-25T06:59:18;5.20;99.90
8593;DHT22;4334;49.982;8.398;2022-11-25T07:01:45;5.20;99.90
8593;DHT22;4334;49.982;8.398;2022-11-25T07:04:11;5.30;99.90
8593;DHT22;4334;49.982;8.398;2022-11-25T07:06:38;5.30;99.90
8593;DHT22;4334;49.982;8.398;2022-11-25T07:09:05;5.30;99.90
8593;DHT22;4334;49.982;8.398;2022-11-25T07:11:33;9.10;99.90
8593;DHT22;4334;49.982;8.398;2022-11-25T07:14:03;5.40;99.90
8593;DHT22;4334;49.982;8.398;2022-11-25T07:16:31;5.40;99.90
8593;DHT22;4334;49.982;8.398;2022-11-25T07:18:58;5.50;99.90
8593;DHT22;4334;49.982;8.398;2022-11-25T07:21:27;5.50;99.90
8593;DHT22;4334;49.982;8.398;2022-11-25T07:23:54;5.50;99.90
8593;DHT22;4334;49.982;8.398;2022-11-25T07:26:23;5.50;99.90
8593;DHT22;4334;49.982;8.398;2022-11-25T07:28:51;5.50;99.90
8593;DHT22;4334;49.982;8.398;2022-11-25T07:31:22;5.50;99.90
8593;DHT22;4334;49.982;8.398;2022-11-25T07:33:50;5.50;99.90
8593;DHT22;4334;49.982;8.398;2022-11-25T07:36:17;5.50;99.90
8593;DHT22;4334;49.982;8.398;2022-11-25T07:38:45;5.50;99.90
8593;DHT22;4334;49.982;8.398;2022-11-25T07:41:13;5.50;99.90
8593;DHT22;4334;49.982;8.398;2022-11-25T07:43:42;5.40;99.90
8593;DHT22;4334;49.982;8.398;2022-11-25T07:46:11;5.40;99.90
8593;DHT22;4334;49.982;8.398;2022-11-25T07:48:40;5.40;99.90
8593;DHT22;4334;49.982;8.398;2022-11-25T07:51:13;5.40;99.90
8593;DHT22;4334;49.982;8.398;2022-11-25T07:53:40;5.50;99.90
8593;DHT22;4334;49.982;8.398;2022-11-25T07:56:06;8.20;99.90
8593;DHT22;4334;49.982;8.398;2022-11-25T07:58:33;5.60;99.90
8593;DHT22;4334;49.982;8.398;2022-11-25T08:01:01;5.70;99.90
8593;DHT22;4334;49.982;8.398;2022-11-25T08:03:28;5.80;99.90
8593;DHT22;4334;49.982;8.398;2022-11-25T08:05:59;5.80;99.90
8593;DHT22;4334;49.982;8.398;2022-11-25T08:08:25;5.80;99.90
8593;DHT22;4334;49.982;8.398;2022-11-25T08:10:52;5.90;99.90
8593;DHT22;4334;49.982;8.398;2022-11-25T08:13:19;5.90;99.90
8593;DHT22;4334;49.982;8.398;2022-11-25T08:15:46;5.90;99.90
8593;DHT22;4334;49.982;8.398;2022-11-25T08:18:12;6.70;99.90
8593;DHT22;4334;49.982;8.398;2022-11-25T08:20:39;7.90;99.90
8593;DHT22;4334;49.982;8.398;2022-11-25T08:23:07;6.00;99.90
8593;DHT22;4334;49.982;8.398;2022-11-25T08:25:38;6.00;99.90
8593;DHT22;4334;49.982;8.398;2022-11-25T08:28:05;6.00;99.90
8593;DHT22;4334;49.982;8.398;2022-11-25T08:30:32;6.10;99.90
8593;DHT22;4334;49.982;8.398;2022-11-25T08:32:59;6.20;99.90
8593;DHT22;4334;49.982;8.398;2022-11-25T08:35:26;6.20;99.90
8593;DHT22;4334;49.982;8.398;2022-11-25T08:37:53;6.40;99.90
8593;DHT22;4334;49.982;8.398;2022-11-25T08:40:21;6.20;99.90
8593;DHT22;4334;49.982;8.398;2022-11-25T08:42:47;9.50;99.90
8593;DHT22;4334;49.982;8.398;2022-11-25T08:45:14;6.30;99.90
8593;DHT22;4334;49.982;8.398;2022-11-25T08:47:41;6.40;99.90
8593;DHT22;4334;49.982;8.398;2022-11-25T08:50:09;6.50;99.90
8593;DHT22;4334;49.982;8.398;2022-11-25T08:52:37;6.60;99.90
8593;DHT22;4334;49.982;8.398;2022-11-25T08:55:05;6.70;99.90
8593;DHT22;4334;49.982;8.398;2022-11-25T08:57:33;6.70;99.90
8593;DHT22;4334;49.982;8.398;2022-11-25T09:00:00;6.70;99.90
8593;DHT22;4334;49.982;8.398;2022-11-25T09:02:27;6.70;99.90
8593;DHT22;4334;49.982;8.398;2022-11-25T09:04:53;6.60;99.90
8593;DHT22;4334;49.982;8.398;2022-11-25T09:07:20;6.60;99.90
8593;DHT22;4334;49.982;8.398;2022-11-25T09:09:47;6.70;99.90
8593;DHT22;4334;49.982;8.398;2022-11-25T09:12:14;6.70;99.90
8593;DHT22;4334;49.982;8.398;2022-11-25T09:14:43;6.60;99.90
8593;DHT22;4334;49.982;8.398;2022-11-25T09:17:10;6.70;99.90
8593;DHT22;4334;49.982;8.398;2022-11-25T09:19:37;6.80;99.90
8593;DHT22;4334;49.982;8.398;2022-11-25T09:22:04;6.90;99.90
8593;DHT22;4334;49.982;8.398;2022-11-25T09:24:33;7.00;99.90
8593;DHT22;4334;49.982;8.398;2022-11-25T09:27:00;7.10;99.90
8593;DHT22;4334;49.982;8.398;2022-11-25T09:29:27;7.10;99.90
8593;DHT22;4334;49.982;8.398;2022-11-25T09:31:55;7.10;99.90
8593;DHT22;4334;49.982;8.398;2022-11-25T09:34:22;7.10;99.90
8593;DHT22;4334;49.982;8.398;2022-11-25T09:36:49;7.10;99.90
8593;DHT22;4334;49.982;8.398;2022-11-25T09:39:16;7.20;99.90
8593;DHT22;4334;49.982;8.398;2022-11-25T09:41:54;7.20;99.90
8593;DHT22;4334;49.982;8.398;2022-11-25T09:44:50;7.30;99.90
8593;DHT22;4334;49.982;8.398;2022-11-25T09:47:46;7.40;99.90
8593;DHT22;4334;49.982;8.398;2022-11-25T09:50:22;8.60;99.90
8593;DHT22;4334;49.982;8.398;2022-11-25T09:52:56;7.40;99.90
8593;DHT22;4334;49.982;8.398;2022-11-25T09:55:29;7.50;99.90
8593;DHT22;4334;49.982;8.398;2022-11-25T09:58:05;7.40;99.90
8593;DHT22;4334;49.982;8.398;2022-11-25T10:00:40;7.50;99.90
8593;DHT22;4334;49.982;8.398;2022-11-25T10:03:14;7.60;99.90
8593;DHT22;4334;49.982;8.398;2022-11-25T10:05:46;7.50;99.90
8593;DHT22;4334;49.982;8.398;2022-11-25T10:08:19;7.50;99.90
8593;DHT22;4334;49.982;8.398;2022-11-25T10:10:50;7.40;99.90
8593;DHT22;4334;49.982;8.398;2022-11-25T10:13:21;9.00;99.90
8593;DHT22;4334;49.982;8.398;2022-11-25T10:15:52;7.50;99.90
8593;DHT22;4334;49.982;8.398;2022-11-25T10:18:28;7.50;99.90
8593;DHT22;4334;49.982;8.398;2022-11-25T10:20:55;10.70;99.90
8593;DHT22;4334;49.982;8.398;2022-11-25T10:23:25;8.00;99.90
8593;DHT22;4334;49.982;8.398;2022-11-25T10:25:56;8.10;99.90
8593;DHT22;4334;49.982;8.398;2022-11-25T10:28:29;8.10;99.90
8593;DHT22;4334;49.982;8.398;2022-11-25T10:31:01;8.20;99.90
8593;DHT22;4334;49.982;8.398;2022-11-25T10:33:32;8.50;99.90
8593;DHT22;4334;49.982;8.398;2022-11-25T10:36:00;9.20;99.90
8593;DHT22;4334;49.982;8.398;2022-11-25T10:38:36;9.40;99.90
8593;DHT22;4334;49.982;8.398;2022-11-25T10:41:04;9.60;99.90
8593;DHT22;4334;49.982;8.398;2022-11-25T10:43:32;9.70;99.90
8593;DHT22;4334;49.982;8.398;2022-11-25T10:46:07;10.50;99.90
8593;DHT22;4334;49.982;8.398;2022-11-25T10:48:50;11.70;99.90
8593;DHT22;4334;49.982;8.398;2022-11-25T10:51:34;12.60;99.90
8593;DHT22;4334;49.982;8.398;2022-11-25T10:54:13;13.20;99.90
8593;DHT22;4334;49.982;8.398;2022-11-25T10:56:47;12.90;99.90
8593;DHT22;4334;49.982;8.398;2022-11-25T10:59:22;13.10;99.90
8593;DHT22;4334;49.982;8.398;2022-11-25T11:01:50;13.90;99.90
8593;DHT22;4334;49.982;8.398;2022-11-25T11:04:19;14.80;99.90
8593;DHT22;4334;49.982;8.398;2022-11-25T11:06:48;14.30;99.90
8593;DHT22;4334;49.982;8.398;2022-11-25T11:09:33;14.40;99.90
8593;DHT22;4334;49.982;8.398;2022-11-25T11:12:12;13.10;99.90
8593;DHT22;4334;49.982;8.398;2022-11-25T11:14:39;12.60;99.90
8593;DHT22;4334;49.982;8.398;2022-11-25T11:17:23;12.60;99.90
8593;DHT22;4334;49.982;8.398;2022-11-25T11:20:02;12.50;99.90
8593;DHT22;4334;49.982;8.398;2022-11-25T11:22:31;12.40;99.90
8593;DHT22;4334;49.982;8.398;2022-11-25T11:25:05;11.90;99.90
8593;DHT22;4334;49.982;8.398;2022-11-25T11:27:35;11.70;99.90
8593;DHT22;4334;49.982;8.398;2022-11-25T11:30:09;13.20;99.90
8593;DHT22;4334;49.982;8.398;2022-11-25T11:32:38;10.90;99.90
8593;DHT22;4334;49.982;8.398;2022-11-25T11:35:15;10.60;99.90
8593;DHT22;4334;49.982;8.398;2022-11-25T11:37:45;10.50;99.90
8593;DHT22;4334;49.982;8.398;2022-11-25T11:40:28;10.20;99.90
8593;DHT22;4334;49.982;8.398;2022-11-25T11:43:04;10.20;99.90
8593;DHT22;4334;49.982;8.398;2022-11-25T11:45:52;10.10;99.90
8593;DHT22;4334;49.982;8.398;2022-11-25T11:48:25;10.00;99.90
8593;DHT22;4334;49.982;8.398;2022-11-25T11:51:00;10.20;99.90
8593;DHT22;4334;49.982;8.398;2022-11-25T11:53:30;10.30;99.90
8593;DHT22;4334;49.982;8.398;2022-11-25T11:56:06;10.30;99.90
8593;DHT22;4334;49.982;8.398;2022-11-25T11:58:48;10.40;99.90
8593;DHT22;4334;49.982;8.398;2022-11-25T12:01:31;10.40;99.90
8593;DHT22;4334;49.982;8.398;2022-11-25T12:04:07;10.40;99.90
8593;DHT22;4334;49.982;8.398;2022-11-25T12:06:42;10.90;99.90
8593;DHT22;4334;49.982;8.398;2022-11-25T12:09:14;11.60;99.90
8593;DHT22;4334;49.982;8.398;2022-11-25T12:11:47;11.60;99.90
8593;DHT22;4334;49.982;8.398;2022-11-25T12:14:24;11.00;99.90
8593;DHT22;4334;49.982;8.398;2022-11-25T12:16:54;12.50;99.90
8593;DHT22;4334;49.982;8.398;2022-11-25T12:19:29;11.10;99.90
8593;DHT22;4334;49.982;8.398;2022-11-25T12:22:04;10.10;99.90
8593;DHT22;4334;49.982;8.398;2022-11-25T12:24:49;10.00;99.90
8593;DHT22;4334;49.982;8.398;2022-11-25T12:27:21;9.80;99.90
8593;DHT22;4334;49.982;8.398;2022-11-25T12:29:51;9.80;99.90
8593;DHT22;4334;49.982;8.398;2022-11-25T12:32:40;9.90;99.90
8593;DHT22;4334;49.982;8.398;2022-11-25T12:35:18;9.90;99.90
8593;DHT22;4334;49.982;8.398;2022-11-25T12:37:51;9.90;99.90
8593;DHT22;4334;49.982;8.398;2022-11-25T12:40:26;9.90;99.90
8593;DHT22;4334;49.982;8.398;2022-11-25T12:43:00;9.80;99.90
8593;DHT22;4334;49.982;8.398;2022-11-25T12:45:30;9.60;99.90
8593;DHT22;4334;49.982;8.398;2022-11-25T12:47:58;9.60;99.90
8593;DHT22;4334;49.982;8.398;2022-11-25T12:50:31;9.50;99.90
8593;DHT22;4334;49.982;8.398;2022-11-25T12:53:07;9.50;99.90
8593;DHT22;4334;49.982;8.398;2022-11-25T12:55:38;10.00;99.90
8593;DHT22;4334;49.982;8.398;2022-11-25T12:58:30;10.80;99.90
8593;DHT22;4334;49.982;8.398;2022-11-25T13:01:40;11.10;99.90
8593;DHT22;4334;49.982;8.398;2022-11-25T13:04:46;11.00;99.90
8593;DHT22;4334;49.982;8.398;2022-11-25T13:07:26;10.80;99.90
8593;DHT22;4334;49.982;8.398;2022-11-25T13:10:11;10.70;99.90
8593;DHT22;4334;49.982;8.398;2022-11-25T13:12:49;10.50;99.90
8593;DHT22;4334;49.982;8.398;2022-11-25T13:15:25;10.40;99.90
8593;DHT22;4334;49.982;8.398;2022-11-25T13:17:56;10.20;99.90
8593;DHT22;4334;49.982;8.398;2022-11-25T13:20:46;10.50;99.90
8593;DHT22;4334;49.982;8.398;2022-11-25T13:23:22;10.10;99.90
8593;DHT22;4334;49.982;8.398;2022-11-25T13:25:52;10.10;99.90
8593;DHT22;4334;49.982;8.398;2022-11-25T13:28:30;10.10;99.90
8593;DHT22;4334;49.982;8.398;2022-11-25T13:31:19;10.10;99.90
8593;DHT22;4334;49.982;8.398;2022-11-25T13:33:58;10.10;99.90
8593;DHT22;4334;49.982;8.398;2022-11-25T13:36:43;10.10;99.90
8593;DHT22;4334;49.982;8.398;2022-11-25T13:39:13;10.00;99.90
8593;DHT22;4334;49.982;8.398;2022-11-25T13:41:45;10.00;99.90
8593;DHT22;4334;49.982;8.398;2022-11-25T13:44:22;10.10;99.90
8593;DHT22;4334;49.982;8.398;2022-11-25T13:46:53;10.20;99.90
8593;DHT22;4334;49.982;8.398;2022-11-25T13:49:26;10.30;99.90
8593;DHT22;4334;49.982;8.398;2022-11-25T13:51:55;10.50;99.90
8593;DHT22;4334;49.982;8.398;2022-11-25T13:54:25;10.40;99.90
8593;DHT22;4334;49.982;8.398;2022-11-25T13:57:25;10.40;99.90
8593;DHT22;4334;49.982;8.398;2022-11-25T13:59:55;10.50;99.90
8593;DHT22;4334;49.982;8.398;2022-11-25T14:02:37;10.50;99.90
8593;DHT22;4334;49.982;8.398;2022-11-25T14:05:34;10.60;99.90
8593;DHT22;4334;49.982;8.398;2022-11-25T14:08:13;10.50;99.90
8593;DHT22;4334;49.982;8.398;2022-11-25T14:10:44;10.40;99.90
8593;DHT22;4334;49.982;8.398;2022-11-25T14:13:26;10.30;99.90
8593;DHT22;4334;49.982;8.398;2022-11-25T14:16:10;10.30;99.90
8593;DHT22;4334;49.982;8.398;2022-11-25T14:19:02;11.30;99.90
8593;DHT22;4334;49.982;8.398;2022-11-25T14:21:47;10.30;99.90
8593;DHT22;4334;49.982;8.398;2022-11-25T14:24:25;10.80;99.90
8593;DHT22;4334;49.982;8.398;2022-11-25T14:26:55;10.30;99.90
8593;DHT22;4334;49.982;8.398;2022-11-25T14:29:27;10.30;99.90
8593;DHT22;4334;49.982;8.398;2022-11-25T14:31:59;10.30;99.90
8593;DHT22;4334;49.982;8.398;2022-11-25T14:34:30;10.30;99.90
8593;DHT22;4334;49.982;8.398;2022-11-25T14:37:07;10.30;99.90
8593;DHT22;4334;49.982;8.398;2022-11-25T14:39:38;12.80;99.90
8593;DHT22;4334;49.982;8.398;2022-11-25T14:42:09;10.10;99.90
8593;DHT22;4334;49.982;8.398;2022-11-25T14:44:43;10.00;99.90
8593;DHT22;4334;49.982;8.398;2022-11-25T14:47:11;9.90;99.90
8593;DHT22;4334;49.982;8.398;2022-11-25T14:49:43;9.80;99.90
8593;DHT22;4334;49.982;8.398;2022-11-25T14:52:15;9.60;99.90
8593;DHT22;4334;49.982;8.398;2022-11-25T14:54:43;9.60;99.90
8593;DHT22;4334;49.982;8.398;2022-11-25T14:57:10;9.30;99.90
8593;DHT22;4334;49.982;8.398;2022-11-25T14:59:39;9.20;99.90
8593;DHT22;4334;49.982;8.398;2022-11-25T15:02:06;9.10;99.90
8593;DHT22;4334;49.982;8.398;2022-11-25T15:04:48;9.10;99.90
8593;DHT22;4334;49.982;8.398;2022-11-25T15:07:18;9.00;99.90
8593;DHT22;4334;49.982;8.398;2022-11-25T15:09:47;9.00;99.90
8593;DHT22;4334;49.982;8.398;2022-11-25T15:12:17;9.00;99.90
8593;DHT22;4334;49.982;8.398;2022-11-25T15:14:50;9.50;99.90
8593;DHT22;4334;49.982;8.398;2022-11-25T15:17:25;8.80;99.90
8593;DHT22;4334;49.982;8.398;2022-11-25T15:19:56;8.70;99.90
8593;DHT22;4334;49.982;8.398;2022-11-25T15:22:23;8.70;99.90
8593;DHT22;4334;49.982;8.398;2022-11-25T15:24:52;8.60;99.90
8593;DHT22;4334;49.982;8.398;2022-11-25T15:27:21;8.50;99.90
8593;DHT22;4334;49.982;8.398;2022-11-25T15:29:51;8.50;99.90
8593;DHT22;4334;49.982;8.398;2022-11-25T15:32:23;8.50;99.90
8593;DHT22;4334;49.982;8.398;2022-11-25T15:34:51;8.50;99.90
8593;DHT22;4334;49.982;8.398;2022-11-25T15:37:18;12.00;99.90
8593;DHT22;4334;49.982;8.398;2022-11-25T15:39:45;8.30;99.90
8593;DHT22;4334;49.982;8.398;2022-11-25T15:42:16;8.30;99.90
8593;DHT22;4334;49.982;8.398;2022-11-25T15:44:47;8.30;99.90
8593;DHT22;4334;49.982;8.398;2022-11-25T15:47:21;8.30;99.90
8593;DHT22;4334;49.982;8.398;2022-11-25T15:49:57;8.20;99.90
8593;DHT22;4334;49.982;8.398;2022-11-25T15:52:27;8.20;99.90
8593;DHT22;4334;49.982;8.398;2022-11-25T15:54:59;8.30;99.90
8593;DHT22;4334;49.982;8.398;2022-11-25T15:57:30;8.20;99.90
8593;DHT22;4334;49.982;8.398;2022-11-25T16:00:14;8.30;99.90
8593;DHT22;4334;49.982;8.398;2022-11-25T16:02:51;8.20;99.90
8593;DHT22;4334;49.982;8.398;2022-11-25T16:05:35;8.20;99.90
8593;DHT22;4334;49.982;8.398;2022-11-25T16:08:26;8.10;99.90
8593;DHT22;4334;49.982;8.398;2022-11-25T16:10:56;8.20;99.90
8593;DHT22;4334;49.982;8.398;2022-11-25T16:13:26;11.10;99.90
8593;DHT22;4334;49.982;8.398;2022-11-25T16:15:56;8.20;99.90
8593;DHT22;4334;49.982;8.398;2022-11-25T16:18:30;8.10;99.90
8593;DHT22;4334;49.982;8.398;2022-11-25T16:21:01;8.10;99.90
8593;DHT22;4334;49.982;8.398;2022-11-25T16:23:31;8.10;99.90
8593;DHT22;4334;49.982;8.398;2022-11-25T16:26:02;8.10;99.90
8593;DHT22;4334;49.982;8.398;2022-11-25T16:28:30;8.00;99.90
8593;DHT22;4334;49.982;8.398;2022-11-25T16:30:57;8.00;99.90
8593;DHT22;4334;49.982;8.398;2022-11-25T16:33:27;8.00;99.90
8593;DHT22;4334;49.982;8.398;2022-11-25T16:35:54;8.00;99.90
8593;DHT22;4334;49.982;8.398;2022-11-25T16:38:21;8.00;99.90